METAR Data
IDs: Format: Raw Decoded Include TAF

Data at: 0432 UTC 26 Sep 2018

KEVB 260150Z 10006KT 10SM SCT026 28/23 A3010 RMK LAST
KEVB 260050Z 10006KT 10SM SCT026 28/23 A3010
KEVB 252350Z 10006KT 10SM SCT026 28/22 A3008
KEVB 252250Z 10006KT 10SM SCT026 28/22 A3007
KEVB 252147Z 10006KT 10SM SCT026 28/22 A3007
KEVB 252047Z 10006KT 10SM SCT026 30/22 A3008
KEVB 251947Z 08006KT 10SM SCT026 30/22 A3009
KEVB 251850Z 08006KT 10SM SCT026 31/22 A3011
KEVB 251747Z 08006KT 10SM SCT026 30/23 A3013
KEVB 251647Z 07006KT 10SM SCT028 30/23 A3014
KEVB 251547Z 09007KT 10SM SCT026 30/23 A3015
KEVB 251447Z 09005KT 10SM FEW026 30/23 A3014
KEVB 251347Z 12008KT 10SM FEW026 30/23 A3013
KEVB 251247Z 00000KT 10SM FEW026 29/23 A3012
KEVB 251147Z 00000KT 10SM FEW020 24/23 A3010
KEVB 251047Z 00000KT 10SM CLR 24/23 A3009 RMK FIRST
KEVB 250147Z 10005KT 10SM SCT026 28/23 A3009 RMK LAST
KEVB 250047Z 10005KT 10SM SCT026 28/23 A3007
KEVB 242347Z 00000KT 10SM FEW026 28/22 A3004
KEVB 242247Z 00000KT 10SM CLR 28/23 A3004
KEVB 242147Z 10010KT 10SM FEW026 30/22 A3003
KEVB 242047Z 11010KT 10SM FEW026 30/23 A3003
KEVB 241947Z 11010KT 10SM SCT026 31/23 A3003
KEVB 241847Z 10008KT 10SM BKN026 29/24 A3006
KEVB 241750Z 16006KT 7SM RA BKN023 26/24 A3009
KEVB 241715Z 16014G19KT 7SM RA BKN020 26/24 A3009
KEVB 241647Z 16014G19KT 2SM RA BKN020 26/24 A3009